Time;durP1;ratioP1;P1;durP2;ratioP2;P2;SDS_P1;SDS_P2;PMS_P1;PMS_P2;Temp;Humidity;BMP_temperature;BMP_pressure;BME280_temperature;BME280_humidity;BME280_pressure;Samples;Min_cycle;Max_cycle;Signal;HPM_P1;HPM_P2
2023/05/21 00:00:58;;;;;;;13.05;9.50;;;17.00;68.30;;;;;;4995499;28;20049;-74
2023/05/21 00:03:25;;;;;;;14.10;9.70;;;17.00;68.40;;;;;;4969907;28;20037;-73
2023/05/21 00:05:51;;;;;;;12.45;9.20;;;17.00;68.50;;;;;;4992493;28;20562;-74
2023/05/21 00:08:17;;;;;;;13.05;9.55;;;17.00;68.80;;;;;;5003971;28;20045;-74
2023/05/21 00:10:42;;;;;;;14.48;9.40;;;17.00;68.70;;;;;;4996660;28;20057;-74
2023/05/21 00:13:09;;;;;;;14.18;9.80;;;16.90;68.70;;;;;;5002894;28;20049;-74
2023/05/21 00:15:35;;;;;;;13.90;10.05;;;16.90;68.80;;;;;;4996864;28;20053;-74
2023/05/21 00:18:00;;;;;;;14.88;9.70;;;16.90;69.00;;;;;;5009501;28;20034;-74
2023/05/21 00:20:28;;;;;;;13.20;9.32;;;16.90;69.10;;;;;;4972074;28;20045;-74
2023/05/21 00:22:53;;;;;;;14.98;9.18;;;16.90;69.20;;;;;;4973660;28;20041;-74
2023/05/21 00:25:19;;;;;;;13.75;9.02;;;16.90;69.30;;;;;;4982756;28;20037;-74
2023/05/21 00:27:45;;;;;;;12.30;9.02;;;16.80;69.20;;;;;;4978103;28;20038;-74
2023/05/21 00:30:10;;;;;;;12.55;8.95;;;16.90;69.40;;;;;;4996076;28;20041;-74
2023/05/21 00:32:36;;;;;;;12.93;9.23;;;16.80;69.30;;;;;;4979173;28;20037;-74
2023/05/21 00:35:02;;;;;;;14.95;9.48;;;16.80;69.50;;;;;;4970064;28;20038;-74
2023/05/21 00:37:31;;;;;;;15.57;9.90;;;16.80;70.50;;;;;;4998326;28;20452;-74
2023/05/21 00:39:57;;;;;;;12.15;8.68;;;16.80;69.80;;;;;;4988553;28;20029;-74
2023/05/21 00:42:26;;;;;;;12.98;8.68;;;16.70;69.80;;;;;;4990429;28;20096;-74
2023/05/21 00:44:53;;;;;;;11.45;8.93;;;16.70;70.60;;;;;;4982143;28;20042;-74
2023/05/21 00:47:20;;;;;;;13.48;9.98;;;16.70;69.90;;;;;;4989188;28;20041;-74
2023/05/21 00:49:47;;;;;;;11.65;9.13;;;16.70;70.00;;;;;;4977394;28;20052;-74
2023/05/21 00:52:13;;;;;;;12.02;8.63;;;16.70;70.20;;;;;;4959234;28;20424;-74
2023/05/21 00:54:39;;;;;;;11.55;8.73;;;16.70;70.20;;;;;;4975985;28;20041;-74
2023/05/21 00:57:05;;;;;;;12.43;8.63;;;16.60;70.30;;;;;;4951445;28;20041;-74
2023/05/21 00:59:31;;;;;;;11.23;8.68;;;16.60;70.20;;;;;;4991039;28;20432;-74
2023/05/21 01:02:02;;;;;;;10.82;8.60;;;16.60;70.30;;;;;;4932539;28;20046;-75
2023/05/21 01:04:28;;;;;;;9.95;7.93;;;16.60;70.50;;;;;;4946722;28;20042;-74
2023/05/21 01:06:55;;;;;;;11.95;8.70;;;16.60;70.60;;;;;;4961719;28;22798;-74
2023/05/21 01:09:20;;;;;;;11.80;8.98;;;16.60;70.50;;;;;;4963014;28;20075;-74
2023/05/21 01:11:48;;;;;;;11.50;9.15;;;16.60;70.40;;;;;;4973744;28;20045;-74
2023/05/21 01:14:14;;;;;;;10.88;8.70;;;16.60;70.50;;;;;;4973071;28;20133;-74
2023/05/21 01:16:42;;;;;;;13.60;9.02;;;16.60;70.60;;;;;;4975849;28;20562;-74
2023/05/21 01:19:09;;;;;;;14.32;9.68;;;16.50;70.50;;;;;;4975208;28;20132;-74
2023/05/21 01:21:36;;;;;;;15.27;9.10;;;16.50;70.70;;;;;;4965448;28;20046;-73
2023/05/21 01:24:06;;;;;;;12.68;9.80;;;16.50;70.70;;;;;;4983813;28;20037;-74
2023/05/21 01:26:32;;;;;;;12.48;9.35;;;16.50;71.00;;;;;;4970734;28;20041;-74
2023/05/21 01:28:58;;;;;;;11.82;9.07;;;16.50;71.00;;;;;;5001717;28;20038;-74
2023/05/21 01:31:38;;;;;;;12.77;9.10;;;16.50;71.10;;;;;;4958343;28;20038;-73
2023/05/21 01:34:04;;;;;;;12.20;8.95;;;16.50;71.20;;;;;;4970504;28;20061;-74
2023/05/21 01:36:33;;;;;;;11.75;8.90;;;16.50;71.20;;;;;;4968292;28;20143;-73
2023/05/21 01:39:11;;;;;;;12.18;8.45;;;16.50;71.20;;;;;;4960842;28;20037;-75
2023/05/21 01:41:37;;;;;;;12.45;9.05;;;16.50;71.40;;;;;;4964193;28;20115;-74
2023/05/21 01:44:03;;;;;;;11.70;8.95;;;16.40;71.20;;;;;;4973439;28;20039;-75
2023/05/21 01:46:29;;;;;;;13.20;9.27;;;16.40;71.10;;;;;;4968136;28;20089;-74
2023/05/21 01:48:55;;;;;;;14.40;9.30;;;16.40;71.30;;;;;;4950528;28;20060;-74
2023/05/21 01:51:20;;;;;;;12.93;9.30;;;16.40;71.40;;;;;;4951071;28;20527;-74
2023/05/21 01:53:46;;;;;;;12.50;9.68;;;16.40;71.30;;;;;;4975525;28;20030;-75
2023/05/21 01:56:11;;;;;;;11.57;9.40;;;16.40;71.30;;;;;;4974161;28;20045;-74
2023/05/21 01:58:37;;;;;;;11.77;8.85;;;16.40;71.50;;;;;;4969529;28;20041;-74
2023/05/21 02:01:03;;;;;;;12.27;9.45;;;16.40;71.50;;;;;;4930218;28;20057;-74
2023/05/21 02:03:29;;;;;;;13.45;9.57;;;16.30;71.60;;;;;;4959597;28;20058;-74
2023/05/21 02:05:55;;;;;;;12.30;9.10;;;16.30;71.70;;;;;;4954794;28;20141;-74
2023/05/21 02:08:22;;;;;;;11.43;8.80;;;16.30;71.90;;;;;;4978970;28;20044;-74
2023/05/21 02:10:48;;;;;;;11.00;8.75;;;16.30;71.70;;;;;;4992343;28;20038;-75
2023/05/21 02:13:13;;;;;;;15.73;9.65;;;16.30;71.80;;;;;;4973670;28;20667;-75
2023/05/21 02:15:39;;;;;;;12.00;9.32;;;16.30;71.90;;;;;;4955604;28;20058;-74
2023/05/21 02:18:04;;;;;;;15.82;9.77;;;16.30;71.90;;;;;;4968082;28;20041;-74
2023/05/21 02:20:30;;;;;;;14.90;8.70;;;16.30;71.90;;;;;;4956484;28;20038;-74
2023/05/21 02:22:55;;;;;;;17.92;9.10;;;16.20;72.00;;;;;;4988467;28;20030;-74
2023/05/21 02:25:21;;;;;;;12.57;8.80;;;16.20;72.00;;;;;;4956658;28;20041;-74
2023/05/21 02:27:47;;;;;;;11.90;8.60;;;16.20;72.10;;;;;;4988864;28;20038;-74
2023/05/21 02:30:13;;;;;;;12.90;9.50;;;16.20;72.10;;;;;;4989933;28;20038;-74
2023/05/21 02:32:41;;;;;;;11.65;8.07;;;16.20;72.20;;;;;;4991691;28;20065;-74
2023/05/21 02:35:07;;;;;;;11.93;8.45;;;16.10;72.20;;;;;;4991668;28;20077;-75
2023/05/21 02:37:33;;;;;;;12.90;9.60;;;16.10;73.00;;;;;;4959580;28;20103;-74
2023/05/21 02:39:59;;;;;;;13.40;9.38;;;16.10;72.30;;;;;;4973340;28;20041;-74
2023/05/21 02:42:25;;;;;;;11.27;9.13;;;16.10;72.30;;;;;;4992585;28;20038;-74
2023/05/21 02:44:51;;;;;;;13.25;9.05;;;16.10;72.50;;;;;;4968806;28;20114;-74
2023/05/21 02:47:19;;;;;;;11.95;9.18;;;16.00;72.50;;;;;;4975832;28;20038;-74
2023/05/21 02:49:45;;;;;;;11.50;9.23;;;16.00;72.60;;;;;;4974020;28;20034;-75
2023/05/21 02:52:11;;;;;;;11.32;9.07;;;16.00;72.60;;;;;;4977875;28;20091;-74
2023/05/21 02:54:36;;;;;;;15.65;9.70;;;16.00;72.90;;;;;;4969945;28;20060;-74
2023/05/21 02:57:02;;;;;;;9.48;8.07;;;15.90;72.70;;;;;;4991103;28;20037;-75
2023/05/21 02:59:27;;;;;;;13.25;8.85;;;15.90;72.90;;;;;;4995949;28;20076;-74
2023/05/21 03:01:53;;;;;;;13.95;8.80;;;15.90;72.90;;;;;;4978057;28;20041;-75
2023/05/21 03:04:21;;;;;;;13.18;9.40;;;15.90;72.90;;;;;;5007790;28;20105;-76
2023/05/21 03:06:48;;;;;;;10.90;8.05;;;15.90;72.90;;;;;;4964605;28;20878;-74
2023/05/21 03:09:14;;;;;;;12.50;9.00;;;15.80;73.00;;;;;;4956110;28;20146;-74
2023/05/21 03:11:39;;;;;;;13.27;8.77;;;15.80;73.00;;;;;;4976493;28;20096;-74
2023/05/21 03:14:06;;;;;;;11.35;8.55;;;15.80;73.00;;;;;;4997267;28;20060;-74
2023/05/21 03:16:33;;;;;;;11.98;8.40;;;15.80;73.10;;;;;;4984668;28;20038;-75
2023/05/21 03:18:59;;;;;;;10.57;8.25;;;15.80;73.20;;;;;;4989403;28;20152;-74
2023/05/21 03:21:25;;;;;;;10.15;7.97;;;15.80;73.10;;;;;;4990024;28;20736;-75
2023/05/21 03:23:51;;;;;;;14.40;9.75;;;15.70;73.20;;;;;;4974212;28;20046;-74
2023/05/21 03:26:17;;;;;;;11.88;8.40;;;15.70;73.20;;;;;;4988754;28;20049;-74
2023/05/21 03:28:42;;;;;;;11.30;8.95;;;15.70;73.20;;;;;;4991936;28;20294;-74
2023/05/21 03:31:08;;;;;;;12.05;8.45;;;15.70;73.40;;;;;;4953298;28;20049;-74
2023/05/21 03:33:34;;;;;;;14.93;8.77;;;15.70;73.40;;;;;;4977668;28;20112;-74
2023/05/21 03:35:59;;;;;;;11.68;8.80;;;15.70;73.40;;;;;;4979236;28;20300;-74
2023/05/21 03:38:25;;;;;;;10.70;8.82;;;15.60;73.50;;;;;;4962490;28;20396;-74
2023/05/21 03:40:50;;;;;;;12.90;8.90;;;15.60;73.60;;;;;;4991673;28;20041;-74
2023/05/21 03:43:16;;;;;;;11.75;8.40;;;15.60;73.60;;;;;;4996888;28;20049;-74
2023/05/21 03:45:41;;;;;;;12.52;9.20;;;15.60;73.60;;;;;;4995218;28;20652;-74
2023/05/21 03:48:07;;;;;;;12.20;8.02;;;15.60;73.60;;;;;;4960644;28;20459;-74
2023/05/21 03:50:32;;;;;;;10.63;8.57;;;15.60;74.60;;;;;;4968607;28;20657;-74
2023/05/21 03:52:58;;;;;;;12.55;9.07;;;15.60;73.90;;;;;;4973031;28;20497;-74
2023/05/21 03:55:23;;;;;;;11.18;8.80;;;15.60;74.00;;;;;;4977324;28;20038;-75
2023/05/21 03:57:49;;;;;;;12.40;8.90;;;15.60;74.10;;;;;;4977744;28;20045;-74
2023/05/21 04:00:14;;;;;;;12.07;8.73;;;15.60;74.10;;;;;;4970499;28;20081;-75
2023/05/21 04:02:40;;;;;;;12.30;8.70;;;15.50;74.20;;;;;;4995242;28;20129;-75
2023/05/21 04:05:06;;;;;;;11.70;8.55;;;15.50;74.20;;;;;;4993811;28;20069;-75
2023/05/21 04:07:31;;;;;;;13.73;8.73;;;15.50;74.20;;;;;;4975944;28;20049;-74
2023/05/21 04:09:57;;;;;;;10.25;8.35;;;15.50;74.30;;;;;;4991224;28;20198;-74
2023/05/21 04:12:22;;;;;;;11.95;8.68;;;15.50;74.40;;;;;;5001114;28;20054;-74
2023/05/21 04:14:48;;;;;;;11.30;8.38;;;15.50;74.30;;;;;;4977037;28;20124;-74
2023/05/21 04:17:14;;;;;;;14.68;8.93;;;15.50;74.40;;;;;;4978428;28;20176;-75
2023/05/21 04:19:39;;;;;;;11.70;8.40;;;15.50;74.40;;;;;;4964278;28;20096;-74
2023/05/21 04:22:05;;;;;;;11.13;8.93;;;15.50;74.50;;;;;;4975291;28;20034;-74
2023/05/21 04:24:30;;;;;;;11.98;8.48;;;15.50;74.60;;;;;;4968024;28;20046;-74
2023/05/21 04:26:59;;;;;;;12.77;8.95;;;15.50;74.60;;;;;;4966111;28;20744;-74
2023/05/21 04:29:26;;;;;;;12.57;8.93;;;15.50;74.60;;;;;;4948455;28;20506;-75
2023/05/21 04:31:51;;;;;;;13.48;9.27;;;15.50;74.60;;;;;;4959902;28;20045;-74
2023/05/21 04:34:17;;;;;;;12.65;9.40;;;15.50;74.80;;;;;;4972700;28;20041;-74
2023/05/21 04:36:46;;;;;;;11.13;8.40;;;15.50;74.80;;;;;;4950318;28;20085;-74
2023/05/21 04:39:13;;;;;;;11.25;8.45;;;15.50;75.10;;;;;;4944751;28;20410;-74
2023/05/21 04:41:39;;;;;;;10.77;8.65;;;15.50;75.10;;;;;;4941985;28;20034;-74
2023/05/21 04:44:08;;;;;;;12.15;8.90;;;15.50;75.20;;;;;;4960909;28;20048;-74
2023/05/21 04:46:36;;;;;;;12.60;8.75;;;15.60;75.60;;;;;;4969201;28;20034;-74
2023/05/21 04:49:02;;;;;;;12.40;9.35;;;15.60;75.40;;;;;;4995469;28;20044;-74
2023/05/21 04:51:28;;;;;;;12.10;9.57;;;15.60;75.70;;;;;;4966854;28;20029;-74
2023/05/21 04:53:54;;;;;;;14.10;9.32;;;15.60;75.90;;;;;;4976024;28;20415;-74
2023/05/21 04:56:21;;;;;;;11.32;8.70;;;15.70;76.20;;;;;;4971209;28;20038;-74
2023/05/21 04:58:46;;;;;;;11.20;8.55;;;15.70;76.20;;;;;;4988606;28;20059;-73
2023/05/21 05:01:13;;;;;;;13.95;9.13;;;15.70;76.30;;;;;;4980511;28;20527;-74
2023/05/21 05:03:38;;;;;;;12.95;9.48;;;15.70;76.70;;;;;;4967609;28;20042;-74
2023/05/21 05:06:04;;;;;;;13.68;9.10;;;15.80;76.70;;;;;;4983460;28;20537;-74
2023/05/21 05:08:30;;;;;;;12.60;9.63;;;15.80;76.90;;;;;;4979254;28;20034;-74
2023/05/21 05:10:56;;;;;;;12.05;9.65;;;15.90;77.10;;;;;;4996197;28;20413;-74
2023/05/21 05:13:21;;;;;;;13.30;9.05;;;15.90;77.20;;;;;;4996853;28;20041;-74
2023/05/21 05:15:47;;;;;;;16.00;9.43;;;15.90;77.20;;;;;;4979153;28;20164;-75
2023/05/21 05:18:12;;;;;;;14.10;10.30;;;16.00;77.30;;;;;;4996797;28;20040;-74
2023/05/21 05:20:38;;;;;;;13.95;10.52;;;16.00;77.40;;;;;;4957423;28;20033;-74
2023/05/21 05:23:03;;;;;;;14.45;10.13;;;16.10;77.40;;;;;;4998188;28;20037;-74
2023/05/21 05:25:29;;;;;;;12.80;9.20;;;16.10;77.40;;;;;;4954067;28;20054;-74
2023/05/21 05:27:54;;;;;;;15.45;10.25;;;16.20;77.40;;;;;;4938638;28;20057;-74
2023/05/21 05:30:20;;;;;;;14.10;9.65;;;16.30;77.30;;;;;;4968384;28;20048;-74
2023/05/21 05:32:45;;;;;;;13.85;9.57;;;16.30;78.10;;;;;;4976276;28;20037;-74
2023/05/21 05:35:11;;;;;;;12.15;9.95;;;16.40;77.20;;;;;;4960212;28;20099;-75
2023/05/21 05:37:37;;;;;;;12.75;9.45;;;16.50;77.10;;;;;;4969705;28;20045;-74
2023/05/21 05:40:04;;;;;;;13.32;9.77;;;16.50;76.90;;;;;;4993182;28;20048;-74
2023/05/21 05:42:29;;;;;;;10.38;9.07;;;16.60;76.80;;;;;;4983305;28;20034;-74
2023/05/21 05:44:55;;;;;;;13.23;9.68;;;16.70;76.80;;;;;;4981588;28;20392;-74
2023/05/21 05:47:20;;;;;;;13.82;9.40;;;16.70;76.60;;;;;;4995291;28;20049;-74
2023/05/21 05:49:46;;;;;;;12.15;9.30;;;16.80;76.50;;;;;;4995115;28;20041;-75
2023/05/21 05:52:12;;;;;;;12.90;9.02;;;16.90;76.30;;;;;;4946998;28;20034;-74
2023/05/21 05:54:37;;;;;;;13.98;8.88;;;16.90;76.10;;;;;;4967976;28;20045;-74
2023/05/21 05:57:03;;;;;;;15.20;9.65;;;17.00;76.10;;;;;;4994077;28;20033;-74
2023/05/21 05:59:28;;;;;;;12.10;9.25;;;17.00;76.00;;;;;;4973859;28;20538;-73
2023/05/21 06:01:54;;;;;;;11.23;8.93;;;17.20;76.00;;;;;;4975395;28;20045;-74
2023/05/21 06:04:19;;;;;;;15.00;9.38;;;17.20;75.80;;;;;;4970204;28;20045;-74
2023/05/21 06:06:46;;;;;;;12.52;9.32;;;17.30;75.70;;;;;;4983572;28;20030;-74
2023/05/21 06:09:11;;;;;;;12.40;9.35;;;17.40;75.60;;;;;;4996183;28;20038;-75
2023/05/21 06:11:37;;;;;;;13.02;9.48;;;17.50;75.40;;;;;;4955796;28;20030;-74
2023/05/21 06:14:03;;;;;;;12.00;9.63;;;17.50;75.30;;;;;;4980965;28;20053;-74
2023/05/21 06:16:32;;;;;;;11.02;8.50;;;17.60;75.20;;;;;;4961077;28;20053;-75
2023/05/21 06:18:58;;;;;;;11.82;8.77;;;17.70;75.10;;;;;;4989590;28;20046;-74
2023/05/21 06:21:23;;;;;;;10.75;8.43;;;17.70;75.00;;;;;;4994400;28;20029;-74
2023/05/21 06:23:49;;;;;;;13.02;8.80;;;17.80;74.90;;;;;;4965390;28;20122;-74
2023/05/21 06:26:15;;;;;;;12.90;9.40;;;17.90;74.80;;;;;;4962366;28;20045;-75
2023/05/21 06:28:40;;;;;;;12.05;9.10;;;17.90;74.60;;;;;;4980504;28;20041;-74
2023/05/21 06:31:06;;;;;;;10.57;9.02;;;18.00;74.40;;;;;;4973440;28;20041;-74
2023/05/21 06:33:32;;;;;;;11.85;8.82;;;18.10;74.30;;;;;;4956356;28;20061;-76
2023/05/21 06:35:57;;;;;;;10.48;8.30;;;18.20;74.30;;;;;;4968753;28;20082;-74
2023/05/21 06:38:23;;;;;;;10.98;8.52;;;18.30;74.10;;;;;;4952122;28;20084;-75
2023/05/21 06:40:49;;;;;;;12.30;8.95;;;18.30;73.90;;;;;;4977155;28;20409;-74
2023/05/21 06:43:14;;;;;;;11.30;9.05;;;18.40;73.80;;;;;;4985264;28;20048;-75
2023/05/21 06:45:40;;;;;;;9.95;8.32;;;18.50;73.60;;;;;;4976296;28;20041;-75
2023/05/21 06:48:05;;;;;;;10.80;8.23;;;18.60;73.50;;;;;;4996828;28;20072;-74
2023/05/21 06:50:31;;;;;;;13.52;9.23;;;18.70;73.30;;;;;;4990316;28;20116;-74
2023/05/21 06:52:56;;;;;;;11.43;8.55;;;18.80;73.10;;;;;;4987157;28;20057;-74
2023/05/21 06:55:22;;;;;;;11.90;8.07;;;18.90;72.80;;;;;;4975509;28;20065;-74
2023/05/21 06:57:47;;;;;;;12.73;8.32;;;19.00;72.50;;;;;;4992056;28;20049;-74
2023/05/21 07:00:13;;;;;;;11.50;8.02;;;19.10;72.30;;;;;;4978842;28;20045;-75
2023/05/21 07:02:39;;;;;;;10.75;7.97;;;19.10;72.10;;;;;;4973735;28;20448;-75
2023/05/21 07:05:06;;;;;;;10.07;8.10;;;19.20;71.80;;;;;;4975819;28;20531;-74
2023/05/21 07:07:34;;;;;;;8.55;7.68;;;19.30;71.70;;;;;;4980402;28;20049;-75
2023/05/21 07:09:59;;;;;;;24.15;8.02;;;19.40;71.60;;;;;;4952142;28;20038;-74
2023/05/21 07:12:25;;;;;;;11.18;8.27;;;19.50;71.40;;;;;;4990073;28;20045;-74
2023/05/21 07:14:50;;;;;;;11.18;8.65;;;19.60;71.30;;;;;;4974853;28;20076;-74
2023/05/21 07:17:16;;;;;;;10.43;8.68;;;19.70;71.20;;;;;;4975722;28;20424;-75
2023/05/21 07:19:41;;;;;;;12.65;8.18;;;19.80;70.90;;;;;;4957148;28;20047;-75
2023/05/21 07:22:07;;;;;;;12.43;8.27;;;19.90;70.60;;;;;;4994531;28;20034;-74
2023/05/21 07:24:32;;;;;;;10.65;8.43;;;20.00;70.50;;;;;;4981072;28;20049;-75
2023/05/21 07:26:58;;;;;;;10.10;7.80;;;20.10;70.20;;;;;;4960277;28;20090;-74
2023/05/21 07:29:23;;;;;;;12.50;8.30;;;20.20;70.00;;;;;;4989521;28;20026;-74
2023/05/21 07:31:49;;;;;;;9.45;7.63;;;20.40;69.70;;;;;;4971581;28;20042;-74
2023/05/21 07:34:14;;;;;;;12.15;7.93;;;20.40;69.40;;;;;;4975053;28;20041;-75
2023/05/21 07:36:40;;;;;;;10.73;7.90;;;20.60;69.20;;;;;;4987124;28;20118;-75
2023/05/21 07:39:06;;;;;;;9.27;7.90;;;20.70;68.90;;;;;;4984821;28;20037;-75
2023/05/21 07:41:31;;;;;;;11.15;7.97;;;20.90;68.70;;;;;;4978757;28;20061;-75
2023/05/21 07:43:57;;;;;;;9.32;7.80;;;21.00;68.30;;;;;;4975220;28;20111;-74
2023/05/21 07:46:22;;;;;;;10.77;8.70;;;21.20;68.20;;;;;;4997511;28;20112;-75
2023/05/21 07:48:48;;;;;;;10.52;8.15;;;21.30;67.90;;;;;;4998982;28;20038;-74
2023/05/21 07:51:14;;;;;;;9.93;7.80;;;21.50;67.40;;;;;;4981018;28;20576;-75
2023/05/21 07:53:40;;;;;;;9.57;7.85;;;21.60;67.00;;;;;;4962884;28;20030;-75
2023/05/21 07:56:06;;;;;;;8.23;7.43;;;21.70;66.60;;;;;;4952401;28;21383;-75
2023/05/21 07:58:33;;;;;;;10.32;8.05;;;21.90;66.40;;;;;;4943617;28;20814;-75
2023/05/21 08:00:59;;;;;;;11.35;7.65;;;22.00;66.00;;;;;;4919048;28;20039;-74
2023/05/21 08:03:25;;;;;;;9.15;7.82;;;22.10;65.70;;;;;;4960982;28;20051;-74
2023/05/21 08:05:50;;;;;;;8.38;7.15;;;22.30;65.20;;;;;;4983989;28;20137;-74
2023/05/21 08:08:16;;;;;;;9.73;6.88;;;22.30;64.80;;;;;;4981268;28;20042;-75
2023/05/21 08:10:42;;;;;;;11.80;8.20;;;22.40;64.50;;;;;;4943577;28;20118;-75
2023/05/21 08:13:08;;;;;;;10.90;8.38;;;22.50;64.20;;;;;;4976004;28;20083;-74
2023/05/21 08:15:34;;;;;;;9.10;7.30;;;22.50;63.90;;;;;;4952355;28;20053;-74
2023/05/21 08:18:00;;;;;;;9.90;7.30;;;22.60;63.70;;;;;;4945722;28;20047;-75
2023/05/21 08:20:25;;;;;;;12.05;7.50;;;22.60;63.30;;;;;;4962617;28;20045;-75
2023/05/21 08:22:52;;;;;;;11.20;7.30;;;22.70;63.10;;;;;;4947813;28;20453;-74
2023/05/21 08:25:18;;;;;;;9.55;6.97;;;22.70;62.90;;;;;;4960343;28;20038;-75
2023/05/21 08:27:43;;;;;;;10.07;7.78;;;22.80;62.60;;;;;;4980441;28;20088;-75
2023/05/21 08:30:10;;;;;;;8.60;6.95;;;22.90;62.30;;;;;;4967025;28;20117;-75
2023/05/21 08:32:36;;;;;;;11.60;7.30;;;23.00;62.10;;;;;;4957716;28;20062;-75
2023/05/21 08:35:02;;;;;;;9.13;6.95;;;23.10;61.90;;;;;;4985979;28;20597;-75
2023/05/21 08:37:27;;;;;;;8.90;7.35;;;23.10;61.40;;;;;;4955144;28;20498;-74
2023/05/21 08:39:53;;;;;;;9.15;7.82;;;23.20;61.20;;;;;;4973018;28;20038;-75
2023/05/21 08:42:43;;;;;;;10.88;7.78;;;23.30;60.90;;;;;;4970274;28;20096;-74
2023/05/21 08:45:10;;;;;;;8.60;7.07;;;23.40;60.30;;;;;;4968035;28;20050;-75
2023/05/21 08:47:36;;;;;;;9.20;7.93;;;23.50;60.50;;;;;;4981537;28;20077;-74
2023/05/21 08:50:03;;;;;;;9.43;7.90;;;23.60;60.30;;;;;;4963236;28;20040;-75
2023/05/21 08:52:32;;;;;;;12.27;8.10;;;23.70;60.10;;;;;;4954935;28;20066;-74
2023/05/21 08:54:58;;;;;;;10.25;8.07;;;23.80;59.80;;;;;;4951133;28;20562;-76
2023/05/21 08:57:24;;;;;;;8.90;7.63;;;23.90;59.60;;;;;;4952505;28;20078;-75
2023/05/21 08:59:50;;;;;;;11.43;7.55;;;24.10;59.40;;;;;;4980867;28;20125;-74
2023/05/21 09:02:17;;;;;;;12.38;7.60;;;24.20;59.10;;;;;;5011696;28;20030;-75
2023/05/21 09:04:47;;;;;;;8.73;7.50;;;24.30;58.80;;;;;;4977215;28;20038;-75
2023/05/21 09:07:12;;;;;;;8.57;7.30;;;24.30;58.70;;;;;;5001223;28;20078;-75
2023/05/21 09:09:50;;;;;;;8.77;7.20;;;24.40;58.50;;;;;;4996217;28;20292;-75
2023/05/21 09:12:16;;;;;;;11.93;7.68;;;24.60;58.30;;;;;;5011514;28;20382;-75
2023/05/21 09:14:42;;;;;;;7.88;7.07;;;24.80;58.10;;;;;;4995191;28;20647;-75
2023/05/21 09:17:07;;;;;;;10.98;6.97;;;24.90;57.80;;;;;;4982131;28;20071;-74
2023/05/21 09:19:33;;;;;;;9.45;7.75;;;25.00;57.40;;;;;;5005118;28;20128;-75
2023/05/21 09:22:04;;;;;;;9.85;7.75;;;25.20;57.20;;;;;;4996491;28;20454;-75
2023/05/21 09:24:30;;;;;;;11.57;7.60;;;25.40;56.80;;;;;;5010680;28;20522;-75
2023/05/21 09:26:57;;;;;;;9.82;6.80;;;25.50;56.60;;;;;;4990186;28;20524;-75
2023/05/21 09:29:24;;;;;;;8.40;7.25;;;25.60;56.40;;;;;;4991857;28;20063;-75
2023/05/21 09:31:50;;;;;;;7.70;6.55;;;25.70;56.00;;;;;;4995188;28;20521;-75
2023/05/21 09:34:15;;;;;;;8.95;7.32;;;25.80;55.60;;;;;;4983730;28;20084;-75
2023/05/21 09:36:42;;;;;;;10.63;7.20;;;25.90;55.40;;;;;;5001300;28;20623;-75
2023/05/21 09:39:10;;;;;;;8.55;7.30;;;26.00;55.10;;;;;;5013821;28;20037;-75
2023/05/21 09:41:35;;;;;;;7.82;6.63;;;26.20;54.90;;;;;;4983061;28;20045;-74
2023/05/21 09:44:01;;;;;;;10.70;7.63;;;26.30;54.50;;;;;;4984584;28;20048;-75
2023/05/21 09:46:27;;;;;;;9.43;6.60;;;26.40;54.40;;;;;;4998038;28;20681;-75
2023/05/21 09:48:52;;;;;;;7.28;6.57;;;26.50;54.10;;;;;;5008497;28;20546;-75
2023/05/21 09:51:20;;;;;;;8.30;6.60;;;26.70;53.80;;;;;;5004598;28;20519;-75
2023/05/21 09:53:50;;;;;;;13.15;7.35;;;26.90;53.40;;;;;;5005000;28;20103;-75
2023/05/21 09:56:18;;;;;;;8.13;6.63;;;27.00;53.20;;;;;;4969194;28;20037;-75
2023/05/21 09:58:43;;;;;;;7.80;6.85;;;27.20;53.00;;;;;;4997162;28;20404;-75
2023/05/21 10:01:09;;;;;;;9.43;7.18;;;27.30;52.50;;;;;;4996388;28;20547;-75
2023/05/21 10:03:37;;;;;;;10.65;6.78;;;27.50;52.20;;;;;;4972524;28;20135;-75
2023/05/21 10:06:03;;;;;;;7.65;6.65;;;27.60;51.70;;;;;;4951203;28;20059;-75
2023/05/21 10:08:29;;;;;;;9.15;6.90;;;27.70;51.60;;;;;;4975945;28;20544;-75
2023/05/21 10:10:54;;;;;;;7.65;6.85;;;27.90;51.50;;;;;;4973719;28;20069;-75
2023/05/21 10:13:20;;;;;;;10.00;6.65;;;28.00;51.10;;;;;;4971437;28;20045;-75
2023/05/21 10:15:54;;;;;;;8.27;6.95;;;28.10;50.70;;;;;;4975071;28;20056;-76
2023/05/21 10:18:20;;;;;;;9.27;7.20;;;28.20;49.80;;;;;;4968131;28;20033;-76
2023/05/21 10:20:45;;;;;;;9.73;6.70;;;28.30;50.00;;;;;;4979334;28;20152;-75
2023/05/21 10:23:11;;;;;;;7.85;6.85;;;28.40;49.60;;;;;;4986945;28;20041;-75
2023/05/21 10:25:37;;;;;;;9.52;6.68;;;28.40;49.30;;;;;;4988715;28;20048;-75
2023/05/21 10:28:02;;;;;;;7.65;6.53;;;28.50;49.20;;;;;;4975384;28;20046;-75
2023/05/21 10:30:28;;;;;;;10.90;7.20;;;28.60;49.20;;;;;;4958244;28;20058;-76
2023/05/21 10:32:54;;;;;;;11.25;7.07;;;28.60;48.70;;;;;;4993330;28;20983;-75
2023/05/21 10:35:20;;;;;;;8.57;6.90;;;28.80;48.70;;;;;;4968773;28;20151;-75
2023/05/21 10:37:45;;;;;;;8.95;6.55;;;28.90;48.50;;;;;;4956488;28;20464;-76
2023/05/21 10:40:12;;;;;;;7.47;6.35;;;29.00;48.30;;;;;;4983731;28;20121;-75
2023/05/21 10:42:43;;;;;;;8.05;7.25;;;29.10;48.20;;;;;;4992557;28;20072;-75
2023/05/21 10:45:27;;;;;;;9.32;7.15;;;29.20;47.80;;;;;;4994086;28;20034;-75
2023/05/21 10:48:18;;;;;;;7.28;6.57;;;29.30;47.40;;;;;;4974487;28;20041;-75
2023/05/21 10:51:07;;;;;;;7.57;6.82;;;29.40;47.10;;;;;;4960727;28;20048;-75
2023/05/21 10:53:51;;;;;;;8.15;6.18;;;29.50;47.40;;;;;;4995937;28;20100;-76
2023/05/21 10:56:30;;;;;;;11.27;6.53;;;29.50;47.40;;;;;;4982275;28;20053;-76
2023/05/21 10:59:21;;;;;;;7.80;6.53;;;29.70;46.60;;;;;;4970151;28;20550;-76
2023/05/21 11:01:51;;;;;;;;;;;29.80;46.00;;;;;;4997715;28;20045;-75
2023/05/21 11:04:27;;;;;;;8.45;6.85;;;30.00;46.90;;;;;;5002881;28;19957;-75
2023/05/21 11:06:52;;;;;;;7.85;6.30;;;30.10;46.50;;;;;;4980419;28;20809;-76
2023/05/21 11:09:18;;;;;;;7.00;6.18;;;30.10;46.20;;;;;;4993340;28;20054;-75
2023/05/21 11:12:06;;;;;;;9.00;6.07;;;30.10;46.00;;;;;;4993679;28;20029;-76
2023/05/21 11:14:37;;;;;;;6.60;5.65;;;30.10;45.80;;;;;;5011799;28;20037;-76
2023/05/21 11:17:05;;;;;;;8.23;6.63;;;30.20;45.50;;;;;;4978389;28;20042;-75
2023/05/21 11:19:34;;;;;;;6.78;6.07;;;30.20;45.30;;;;;;5010483;28;20033;-76
2023/05/21 11:22:00;;;;;;;6.63;5.93;;;30.30;44.90;;;;;;4990309;28;20064;-76
2023/05/21 11:24:27;;;;;;;6.55;5.53;;;30.40;44.80;;;;;;4993630;28;20029;-76
2023/05/21 11:26:57;;;;;;;6.32;5.57;;;30.50;44.40;;;;;;5023643;28;20029;-76
2023/05/21 11:29:41;;;;;;;8.98;6.15;;;30.60;43.70;;;;;;5015837;28;20064;-75
2023/05/21 11:32:08;;;;;;;6.50;5.90;;;30.70;42.60;;;;;;4977421;28;20116;-76
2023/05/21 11:34:38;;;;;;;6.45;5.78;;;30.70;42.90;;;;;;4982238;28;20720;-75
2023/05/21 11:37:16;;;;;;;8.57;5.85;;;30.70;42.40;;;;;;4984997;28;20034;-75
2023/05/21 11:39:42;;;;;;;6.80;5.88;;;30.70;41.50;;;;;;5001206;28;20036;-75
2023/05/21 11:42:07;;;;;;;5.93;5.32;;;30.80;42.20;;;;;;4998585;28;20116;-75
2023/05/21 11:44:43;;;;;;;6.53;5.45;;;30.90;42.00;;;;;;4991066;28;20517;-75
2023/05/21 11:47:16;;;;;;;5.80;4.93;;;31.10;41.00;;;;;;4981314;28;20033;-75
2023/05/21 11:49:42;;;;;;;5.78;5.28;;;31.20;41.40;;;;;;5000274;28;20140;-76
2023/05/21 11:52:08;;;;;;;6.82;5.75;;;31.40;41.20;;;;;;4981033;28;20037;-75
2023/05/21 11:54:39;;;;;;;5.95;5.22;;;31.40;41.10;;;;;;4983073;28;20099;-76
2023/05/21 11:57:07;;;;;;;6.57;5.72;;;31.50;40.40;;;;;;4996104;28;20091;-76
2023/05/21 11:59:33;;;;;;;6.75;5.45;;;31.50;40.40;;;;;;4987612;28;20536;-75
2023/05/21 12:02:00;;;;;;;5.50;5.00;;;31.60;40.50;;;;;;4985768;28;20029;-75
2023/05/21 12:04:37;;;;;;;6.80;5.47;;;31.80;40.30;;;;;;5011595;28;20485;-76
2023/05/21 12:07:06;;;;;;;8.88;5.70;;;31.90;39.30;;;;;;4983507;28;20566;-75
2023/05/21 12:09:41;;;;;;;5.97;5.43;;;32.00;39.80;;;;;;5008262;28;20057;-76
2023/05/21 12:12:12;;;;;;;8.02;5.80;;;32.10;39.00;;;;;;5012455;28;20579;-75
2023/05/21 12:14:37;;;;;;;6.88;5.38;;;32.20;39.30;;;;;;5006706;28;20056;-76
2023/05/21 12:17:03;;;;;;;8.20;6.35;;;32.30;39.40;;;;;;5000895;28;20037;-75
2023/05/21 12:19:36;;;;;;;7.65;6.00;;;32.40;39.20;;;;;;4989428;28;20044;-75
2023/05/21 12:22:05;;;;;;;7.15;5.90;;;32.60;38.70;;;;;;5010946;28;20037;-76
2023/05/21 12:24:31;;;;;;;8.32;5.72;;;32.70;38.80;;;;;;5011224;28;20041;-76
2023/05/21 12:27:00;;;;;;;5.50;5.00;;;32.80;38.60;;;;;;4982187;28;20121;-76
2023/05/21 12:29:32;;;;;;;5.97;5.38;;;32.80;38.30;;;;;;5006702;28;20639;-76
2023/05/21 12:32:01;;;;;;;5.93;5.43;;;32.90;37.60;;;;;;4999981;28;20461;-76
2023/05/21 12:34:38;;;;;;;7.53;5.50;;;33.00;37.70;;;;;;5013937;28;20033;-75
2023/05/21 12:37:05;;;;;;;5.20;4.75;;;33.10;37.00;;;;;;4957190;28;20030;-76
2023/05/21 12:39:31;;;;;;;5.85;5.03;;;33.10;37.60;;;;;;4941967;28;22204;-76